createdAt,value
2018-08-27T00:02:25.618Z,99530.75
2018-08-27T00:05:28.873Z,99527.28
2018-08-27T00:08:32.312Z,99529.39
2018-08-27T00:11:35.906Z,99534.48
2018-08-27T00:14:39.536Z,99533.80
2018-08-27T00:17:43.010Z,99520.56
2018-08-27T00:20:46.856Z,99516.41
2018-08-27T00:23:50.331Z,99506.09
2018-08-27T00:26:54.009Z,99509.05
2018-08-27T00:29:57.337Z,99494.19
2018-08-27T00:33:00.990Z,99500.00
2018-08-27T00:36:04.849Z,99494.66
2018-08-27T00:39:10.960Z,99498.92
2018-08-27T00:42:14.411Z,99500.19
2018-08-27T00:45:17.576Z,99496.13
2018-08-27T00:48:20.969Z,99489.61
2018-08-27T00:51:24.497Z,99493.35
2018-08-27T00:54:28.302Z,99484.80
2018-08-27T00:57:31.810Z,99480.00
2018-08-27T01:00:35.134Z,99473.32
2018-08-27T01:03:38.664Z,99471.98
2018-08-27T01:06:41.941Z,99461.17
2018-08-27T01:09:45.065Z,99457.50
2018-08-27T01:12:48.282Z,99459.16
2018-08-27T01:15:51.434Z,99437.13
2018-08-27T01:18:54.657Z,99436.97
2018-08-27T01:21:57.765Z,99430.55
2018-08-27T01:25:00.877Z,99427.69
2018-08-27T01:28:03.988Z,99430.68
2018-08-27T01:31:07.060Z,99432.72
2018-08-27T01:34:10.123Z,99438.92
2018-08-27T01:37:13.214Z,99424.08
2018-08-27T01:40:16.379Z,99427.22
2018-08-27T01:43:19.514Z,99429.11
2018-08-27T01:46:22.671Z,99413.22
2018-08-27T01:49:25.849Z,99411.41
2018-08-27T01:52:28.981Z,99414.29
2018-08-27T01:55:32.011Z,99405.60
2018-08-27T01:58:35.113Z,99396.45
2018-08-27T02:01:38.218Z,99407.22
2018-08-27T02:04:41.353Z,99405.73
2018-08-27T02:07:44.504Z,99400.78
2018-08-27T02:10:47.571Z,99383.30
2018-08-27T02:13:50.615Z,99390.12
2018-08-27T02:16:53.731Z,99377.84
2018-08-27T02:19:56.864Z,99384.55
2018-08-27T02:22:59.995Z,99375.94
2018-08-27T02:26:03.113Z,99375.67
2018-08-27T02:29:06.542Z,99369.06
2018-08-27T02:32:09.627Z,99370.66
2018-08-27T02:35:12.811Z,99364.34
2018-08-27T02:38:15.859Z,99371.88
2018-08-27T02:41:19.009Z,99383.53
2018-08-27T02:44:22.097Z,99361.59
2018-08-27T02:47:25.258Z,99374.88
2018-08-27T02:50:28.294Z,99371.94
2018-08-27T02:53:31.353Z,99352.11
2018-08-27T02:56:34.547Z,99356.27
2018-08-27T02:59:37.654Z,99360.68
2018-08-27T03:02:40.733Z,99352.89
2018-08-27T03:05:43.812Z,99360.53
2018-08-27T03:08:47.572Z,99347.34
2018-08-27T03:11:50.673Z,99352.06
2018-08-27T03:14:53.759Z,99339.17
2018-08-27T03:17:56.875Z,99336.83
2018-08-27T03:21:00.040Z,99322.63
2018-08-27T03:24:03.090Z,99324.72
2018-08-27T03:27:06.219Z,99325.44
2018-08-27T03:30:09.375Z,99328.69
2018-08-27T03:33:12.436Z,99337.77
2018-08-27T03:36:15.517Z,99333.98
2018-08-27T03:39:18.508Z,99326.05
2018-08-27T03:42:21.532Z,99345.58
2018-08-27T03:45:24.621Z,99326.95
2018-08-27T03:48:27.797Z,99346.70
2018-08-27T03:51:30.911Z,99337.84
2018-08-27T03:54:33.997Z,99337.26
2018-08-27T03:57:37.186Z,99330.23
2018-08-27T04:00:40.210Z,99316.03
2018-08-27T04:03:43.298Z,99326.27
2018-08-27T04:06:53.054Z,99337.25
2018-08-27T04:09:56.247Z,99340.23
2018-08-27T04:12:59.426Z,99335.38
2018-08-27T04:16:02.503Z,99340.79
2018-08-27T04:19:05.700Z,99338.85
2018-08-27T04:22:08.837Z,99345.89
2018-08-27T04:25:11.948Z,99345.03
2018-08-27T04:28:15.022Z,99351.22
2018-08-27T04:31:18.139Z,99332.64
2018-08-27T04:34:21.298Z,99339.61
2018-08-27T04:37:24.442Z,99334.77
2018-08-27T04:40:27.525Z,99334.59
2018-08-27T04:43:30.681Z,99326.95
2018-08-27T04:46:34.053Z,99344.64
2018-08-27T04:49:40.184Z,99347.84
2018-08-27T04:52:43.273Z,99348.80
2018-08-27T04:55:46.335Z,99350.27
2018-08-27T04:58:49.780Z,99355.13
2018-08-27T05:01:52.989Z,99376.28
2018-08-27T05:04:56.091Z,99372.36
2018-08-27T05:07:59.246Z,99366.98
2018-08-27T05:11:02.493Z,99370.18
2018-08-27T05:14:06.201Z,99384.05
2018-08-27T05:17:09.365Z,99375.95
2018-08-27T05:20:12.623Z,99383.67
2018-08-27T05:23:15.887Z,99385.55
2018-08-27T05:26:19.127Z,99346.28
2018-08-27T05:29:22.434Z,99392.43
2018-08-27T05:32:25.701Z,99383.73
2018-08-27T05:35:30.145Z,99392.20
2018-08-27T05:38:34.053Z,99405.27
2018-08-27T05:41:37.121Z,99405.27
2018-08-27T05:44:40.199Z,99409.66
2018-08-27T05:47:43.373Z,99404.18
2018-08-27T05:50:46.387Z,99416.90
2018-08-27T05:53:49.506Z,99421.20
2018-08-27T05:56:52.604Z,99415.39
2018-08-27T06:00:02.479Z,99416.73
2018-08-27T06:03:05.576Z,99414.53
2018-08-27T06:06:08.703Z,99428.17
2018-08-27T06:09:11.849Z,99429.67
2018-08-27T06:13:39.496Z,99420.19
2018-08-27T06:16:42.693Z,99428.34
2018-08-27T06:19:45.742Z,99437.19
2018-08-27T06:22:49.049Z,99443.30
2018-08-27T06:25:52.394Z,99440.47
2018-08-27T06:28:55.580Z,99433.03
2018-08-27T06:31:58.628Z,99458.58
2018-08-27T06:35:01.869Z,99472.55
2018-08-27T06:38:05.350Z,99464.92
2018-08-27T06:41:08.435Z,99462.27
2018-08-27T06:44:11.618Z,99461.71
2018-08-27T06:47:14.775Z,99461.04
2018-08-27T06:50:19.259Z,99476.80
2018-08-27T06:53:22.354Z,99473.59
2018-08-27T06:56:25.778Z,99475.06
2018-08-27T06:59:29.353Z,99488.41
2018-08-27T07:02:32.623Z,99484.41
2018-08-27T07:05:36.289Z,99487.22
2018-08-27T07:08:39.571Z,99492.80
2018-08-27T07:11:42.715Z,99498.69
2018-08-27T07:14:46.074Z,99492.78
2018-08-27T07:17:49.139Z,99498.60
2018-08-27T07:20:52.240Z,99497.97
2018-08-27T07:23:55.301Z,99505.59
2018-08-27T07:26:58.513Z,99496.22
2018-08-27T07:30:01.612Z,99503.87
2018-08-27T07:33:04.674Z,99504.63
2018-08-27T07:36:07.832Z,99502.22
2018-08-27T07:39:11.604Z,99501.80
2018-08-27T07:42:14.641Z,99510.81
2018-08-27T07:45:17.706Z,99512.25
2018-08-27T07:48:20.840Z,99520.63
2018-08-27T07:51:24.910Z,99517.46
2018-08-27T07:54:28.049Z,99521.39
2018-08-27T07:57:31.223Z,99524.16
2018-08-27T08:00:34.408Z,99525.25
2018-08-27T08:03:37.580Z,99527.34
2018-08-27T08:06:40.744Z,99531.27
2018-08-27T08:09:43.843Z,99536.93
2018-08-27T08:12:48.448Z,99534.37
2018-08-27T08:15:51.670Z,99539.53
2018-08-27T08:18:54.774Z,99532.97
2018-08-27T08:21:57.912Z,99537.45
2018-08-27T08:25:01.084Z,99532.90
2018-08-27T08:28:04.241Z,99534.27
2018-08-27T08:31:08.461Z,99533.28
2018-08-27T08:34:11.551Z,99527.78
2018-08-27T08:37:14.667Z,99535.67
2018-08-27T08:40:17.744Z,99537.14
2018-08-27T08:43:20.802Z,99539.48
2018-08-27T08:46:23.866Z,99544.17
2018-08-27T08:49:33.663Z,99549.23
2018-08-27T08:52:36.826Z,99550.90
2018-08-27T08:55:39.894Z,99559.34
2018-08-27T08:58:43.091Z,99554.62
2018-08-27T09:01:46.308Z,99561.91
2018-08-27T09:04:49.270Z,99560.71
2018-08-27T09:07:52.404Z,99562.19
2018-08-27T09:10:55.517Z,99562.94
2018-08-27T09:13:58.694Z,99569.26
2018-08-27T09:17:01.863Z,99580.88
2018-08-27T09:20:06.341Z,99584.28
2018-08-27T09:23:09.549Z,99587.88
2018-08-27T09:26:12.655Z,99597.63
2018-08-27T09:29:15.685Z,99599.39
2018-08-27T09:32:18.812Z,99599.86
2018-08-27T09:35:22.008Z,99595.23
2018-08-27T09:38:25.215Z,99600.13
2018-08-27T09:41:28.443Z,99606.27
2018-08-27T09:44:31.485Z,99602.19
2018-08-27T09:47:34.643Z,99590.61
2018-08-27T09:50:37.773Z,99592.48
2018-08-27T09:53:40.896Z,99594.64
2018-08-27T09:56:43.982Z,99595.06
2018-08-27T09:59:47.108Z,99593.14
2018-08-27T10:02:50.186Z,99589.20
2018-08-27T10:05:53.261Z,99596.57
2018-08-27T10:08:56.417Z,99590.70
2018-08-27T10:11:59.520Z,99597.66
2018-08-27T10:15:09.191Z,99596.05
2018-08-27T10:18:12.261Z,99601.50
2018-08-27T10:21:15.403Z,99605.49
2018-08-27T10:24:18.584Z,99609.19
2018-08-27T10:27:21.761Z,99601.64
2018-08-27T10:30:24.860Z,99613.33
2018-08-27T10:33:28.012Z,99600.31
2018-08-27T10:36:31.231Z,99603.53
2018-08-27T10:39:34.353Z,99596.80
2018-08-27T10:42:37.486Z,99604.04
2018-08-27T10:45:40.581Z,99598.42
2018-08-27T10:48:43.818Z,99609.44
2018-08-27T10:51:46.895Z,99599.76
2018-08-27T10:54:49.967Z,99594.64
2018-08-27T10:57:53.102Z,99600.61
2018-08-27T11:00:56.223Z,99595.48
2018-08-27T11:04:00.253Z,99599.45
2018-08-27T11:07:03.466Z,99606.44
2018-08-27T11:10:06.634Z,99609.54
2018-08-27T11:13:09.736Z,99617.65
2018-08-27T11:16:12.970Z,99626.35
2018-08-27T11:19:15.936Z,99641.31
2018-08-27T11:22:19.030Z,99648.23
2018-08-27T11:25:22.229Z,99643.28
2018-08-27T11:28:25.430Z,99633.11
2018-08-27T11:31:28.613Z,99632.05
2018-08-27T11:34:31.706Z,99622.23
2018-08-27T11:37:34.970Z,99632.31
2018-08-27T11:40:38.243Z,99621.80
2018-08-27T11:43:41.590Z,99611.77
2018-08-27T11:46:44.881Z,99627.25
2018-08-27T11:49:48.129Z,99623.56
2018-08-27T11:52:51.286Z,99612.86
2018-08-27T11:55:54.443Z,99622.55
2018-08-27T11:58:57.802Z,99610.06
2018-08-27T12:02:01.188Z,99606.19
2018-08-27T12:05:05.581Z,99616.07
2018-08-27T12:08:09.012Z,99634.94
2018-08-27T12:11:12.122Z,99631.58
2018-08-27T12:14:15.256Z,99627.59
2018-08-27T12:17:18.431Z,99611.72
2018-08-27T12:20:21.770Z,99624.10
2018-08-27T12:23:25.089Z,99648.31
2018-08-27T12:26:28.246Z,99622.32
2018-08-27T12:29:31.347Z,99633.23
2018-08-27T12:32:34.485Z,99625.03
2018-08-27T12:35:37.546Z,99639.30
2018-08-27T12:38:40.885Z,99623.99
2018-08-27T12:41:43.952Z,99635.39
2018-08-27T12:44:47.078Z,99638.07
2018-08-27T12:47:50.189Z,99656.41
2018-08-27T12:50:53.371Z,99656.59
2018-08-27T12:53:56.416Z,99656.89
2018-08-27T12:56:59.483Z,99665.81
2018-08-27T13:00:02.659Z,99669.16
2018-08-27T13:03:05.727Z,99659.27
2018-08-27T13:06:08.862Z,99681.20
2018-08-27T13:09:12.029Z,99674.55
2018-08-27T13:12:15.088Z,99667.97
2018-08-27T13:15:18.166Z,99673.56
2018-08-27T13:18:21.309Z,99681.30
2018-08-27T13:21:25.671Z,99685.64
2018-08-27T13:24:29.077Z,99680.23
2018-08-27T13:27:32.972Z,99682.58
2018-08-27T13:30:36.277Z,99695.78
2018-08-27T13:33:39.149Z,99692.38
2018-08-27T13:36:42.313Z,99694.02
2018-08-27T13:39:45.534Z,99706.09
2018-08-27T13:42:48.599Z,99720.56
2018-08-27T13:45:51.665Z,99710.49
2018-08-27T13:48:54.793Z,99713.22
2018-08-27T13:52:03.846Z,99723.80
2018-08-27T13:55:06.947Z,99722.72
2018-08-27T13:58:09.960Z,99734.63
2018-08-27T14:01:12.955Z,99722.69
2018-08-27T14:04:15.996Z,99731.02
2018-08-27T14:07:19.070Z,99731.53
2018-08-27T14:10:22.082Z,99741.59
2018-08-27T14:13:25.160Z,99736.84
2018-08-27T14:16:28.243Z,99736.77
2018-08-27T14:19:31.466Z,99729.91
2018-08-27T14:22:37.362Z,99738.09
2018-08-27T14:25:40.540Z,99739.13
2018-08-27T14:28:43.679Z,99734.76
2018-08-27T14:31:46.944Z,99740.36
2018-08-27T14:34:50.000Z,99748.22
2018-08-27T14:37:53.111Z,99749.77
2018-08-27T14:40:56.252Z,99774.75
2018-08-27T14:43:59.386Z,99755.73
2018-08-27T14:47:02.698Z,99767.44
2018-08-27T14:50:06.289Z,99766.20
2018-08-27T14:53:16.018Z,99782.91
2018-08-27T14:59:21.672Z,99789.73
2018-08-27T15:02:24.792Z,99794.78
2018-08-27T15:05:27.914Z,99797.09
2018-08-27T15:08:31.061Z,99802.89
2018-08-27T15:11:34.187Z,99798.83
2018-08-27T15:14:37.414Z,99808.24
2018-08-27T15:17:40.593Z,99810.48
2018-08-27T15:20:43.761Z,99825.80
2018-08-27T15:23:46.921Z,99809.38
2018-08-27T15:26:49.964Z,99814.30
2018-08-27T15:29:53.019Z,99820.28
2018-08-27T15:32:56.216Z,99821.94
2018-08-27T15:35:59.237Z,99832.07
2018-08-27T15:39:02.726Z,99828.16
2018-08-27T15:42:05.758Z,99833.17
2018-08-27T15:45:08.875Z,99832.84
2018-08-27T15:48:11.934Z,99839.39
2018-08-27T15:51:15.032Z,99836.64
2018-08-27T15:54:18.087Z,99838.77
2018-08-27T15:57:21.196Z,99848.08
2018-08-27T16:00:24.211Z,99851.81
2018-08-27T16:03:27.285Z,99848.09
2018-08-27T16:06:33.349Z,99848.39
2018-08-27T16:09:36.420Z,99844.62
2018-08-27T16:12:39.824Z,99857.22
2018-08-27T16:15:43.285Z,99856.14
2018-08-27T16:18:46.573Z,99858.18
2018-08-27T16:21:50.275Z,99864.98
2018-08-27T16:24:53.414Z,99868.15
2018-08-27T16:27:56.581Z,99870.92
2018-08-27T16:30:59.646Z,99874.98
2018-08-27T16:34:02.746Z,99880.06
2018-08-27T16:37:05.862Z,99875.16
2018-08-27T16:40:08.955Z,99877.10
2018-08-27T16:43:12.094Z,99880.92
2018-08-27T16:46:15.319Z,99882.30
2018-08-27T16:49:18.347Z,99882.86
2018-08-27T16:52:21.580Z,99887.76
2018-08-27T16:55:24.589Z,99898.10
2018-08-27T16:58:27.661Z,99893.42
2018-08-27T17:01:30.917Z,99904.06
2018-08-27T17:04:34.023Z,99900.98
2018-08-27T17:07:37.164Z,99898.69
2018-08-27T17:10:40.216Z,99906.64
2018-08-27T17:13:43.249Z,99901.94
2018-08-27T17:16:46.361Z,99916.99
2018-08-27T17:19:49.446Z,99916.02
2018-08-27T17:22:52.480Z,99914.77
2018-08-27T17:25:55.551Z,99921.87
2018-08-27T17:28:59.725Z,99919.74
2018-08-27T17:32:03.451Z,99931.69
2018-08-27T17:35:07.211Z,99928.92
2018-08-27T17:38:10.332Z,99935.35
2018-08-27T17:41:13.593Z,99944.02
2018-08-27T17:44:16.847Z,99955.84
2018-08-27T17:47:20.186Z,99960.38
2018-08-27T17:50:23.535Z,99963.70
2018-08-27T17:53:26.765Z,99968.80
2018-08-27T17:56:29.852Z,99976.38
2018-08-27T17:59:33.025Z,99978.27
2018-08-27T18:02:36.268Z,99978.63
2018-08-27T18:05:39.546Z,99984.67
2018-08-27T18:08:42.663Z,99985.90
2018-08-27T18:11:45.817Z,99989.33
2018-08-27T18:14:49.163Z,99991.82
2018-08-27T18:17:52.319Z,100003.02
2018-08-27T18:20:55.433Z,100014.34
2018-08-27T18:23:58.641Z,100011.73
2018-08-27T18:27:01.804Z,100019.71
2018-08-27T18:30:05.377Z,100026.42
2018-08-27T18:33:08.529Z,100030.99
2018-08-27T18:36:11.870Z,100035.09
2018-08-27T18:39:15.221Z,100044.69
2018-08-27T18:42:18.387Z,100051.86
2018-08-27T18:45:21.606Z,100058.09
2018-08-27T18:48:25.006Z,100059.78
2018-08-27T18:51:28.295Z,100064.09
2018-08-27T18:54:31.533Z,100072.25
2018-08-27T18:57:44.101Z,100073.88
2018-08-27T19:00:47.243Z,100087.55
2018-08-27T19:03:50.428Z,100095.14
2018-08-27T19:06:53.574Z,100099.28
2018-08-27T19:09:56.794Z,100099.02
2018-08-27T19:12:59.928Z,100097.41
2018-08-27T19:16:03.109Z,100099.16
2018-08-27T19:19:06.354Z,100102.70
2018-08-27T19:22:09.660Z,100107.01
2018-08-27T19:25:12.717Z,100103.70
2018-08-27T19:28:16.331Z,100108.40
2018-08-27T19:31:20.038Z,100106.00
2018-08-27T19:34:23.434Z,100113.23
2018-08-27T19:37:26.821Z,100110.84
2018-08-27T19:40:29.916Z,100112.48
2018-08-27T19:43:33.237Z,100125.91
2018-08-27T19:46:36.722Z,100129.39
2018-08-27T19:49:40.378Z,100105.72
2018-08-27T19:52:43.780Z,100139.91
2018-08-27T19:55:47.202Z,100146.27
2018-08-27T19:58:50.637Z,100142.22
2018-08-27T20:01:55.294Z,100150.01
2018-08-27T20:04:58.581Z,100164.21
2018-08-27T20:08:02.207Z,100155.73
2018-08-27T20:11:05.734Z,100160.95
2018-08-27T20:14:10.389Z,100164.28
2018-08-27T20:17:13.843Z,100172.00
2018-08-27T20:20:17.341Z,100173.73
2018-08-27T20:23:20.534Z,100165.38
2018-08-27T20:26:30.607Z,100172.33
2018-08-27T20:29:34.289Z,100175.08
2018-08-27T20:32:37.846Z,100180.06
2018-08-27T20:35:40.988Z,100176.64
2018-08-27T20:38:44.549Z,100185.55
2018-08-27T20:41:48.129Z,100192.56
2018-08-27T20:44:53.192Z,100196.67
2018-08-27T20:47:56.780Z,100195.35
2018-08-27T20:51:00.516Z,100199.67
2018-08-27T20:54:03.789Z,100202.44
2018-08-27T20:57:07.270Z,100203.86
2018-08-27T21:00:10.620Z,100201.81
2018-08-27T21:03:14.021Z,100211.50
2018-08-27T21:06:17.319Z,100216.23
2018-08-27T21:09:20.670Z,100211.81
2018-08-27T21:12:24.574Z,100216.16
2018-08-27T21:15:27.991Z,100218.11
2018-08-27T21:18:31.509Z,100226.17
2018-08-27T21:21:35.120Z,100232.87
2018-08-27T21:24:38.584Z,100231.11
2018-08-27T21:27:42.805Z,100235.31
2018-08-27T21:30:45.984Z,100241.47
2018-08-27T21:33:49.146Z,100231.20
2018-08-27T21:36:52.265Z,100234.83
2018-08-27T21:39:55.549Z,100236.00
2018-08-27T21:42:58.811Z,100239.88
2018-08-27T21:46:02.118Z,100241.31
2018-08-27T21:49:05.302Z,100245.24
2018-08-27T21:52:08.836Z,100246.01
2018-08-27T21:55:11.965Z,100240.81
2018-08-27T21:58:15.090Z,100247.36
2018-08-27T22:01:19.326Z,100245.07
2018-08-27T22:14:41.225Z,100257.29
2018-08-27T22:17:44.290Z,100255.95
2018-08-27T22:20:47.403Z,100256.25
2018-08-27T22:23:50.495Z,100258.06
2018-08-27T22:26:53.582Z,100260.50
2018-08-27T22:29:56.640Z,100264.36
2018-08-27T22:32:59.688Z,100269.91
2018-08-27T22:36:02.752Z,100274.05
2018-08-27T22:39:06.066Z,100275.55
2018-08-27T22:42:09.127Z,100275.08
2018-08-27T22:45:12.187Z,100283.70
2018-08-27T22:48:15.249Z,100286.95
2018-08-27T22:51:18.378Z,100289.17
2018-08-27T22:54:21.414Z,100288.59
2018-08-27T22:57:24.428Z,100285.86
2018-08-27T23:00:27.508Z,100294.17
2018-08-27T23:03:36.232Z,100300.23
2018-08-27T23:06:39.302Z,100297.31
2018-08-27T23:09:42.361Z,100299.88
2018-08-27T23:12:45.402Z,100294.63
2018-08-27T23:15:48.510Z,100299.95
2018-08-27T23:18:51.613Z,100296.20
2018-08-27T23:21:54.722Z,100298.27
2018-08-27T23:24:57.729Z,100303.95
2018-08-27T23:28:00.775Z,100302.95
2018-08-27T23:31:03.853Z,100306.45
2018-08-27T23:34:06.978Z,100314.25
2018-08-27T23:37:10.059Z,100312.67
2018-08-27T23:40:13.183Z,100319.61
2018-08-27T23:43:16.251Z,100294.66
2018-08-27T23:46:19.293Z,100319.55
2018-08-27T23:49:22.887Z,100328.22
2018-08-27T23:52:26.503Z,100328.37
2018-08-27T23:55:29.630Z,100328.36
2018-08-27T23:58:32.702Z,100325.30
